Time;durP1;ratioP1;P1;durP2;ratioP2;P2;SDS_P1;SDS_P2;PMS_P1;PMS_P2;Temp;Humidity;BMP_temperature;BMP_pressure;BME280_temperature;BME280_humidity;BME280_pressure;Samples;Min_cycle;Max_cycle;Signal;HPM_P1;HPM_P2
2022/08/17 00:00:03;;;;;;;5.40;5.00;;;26.00;65.10;;;;;;5028043;28;43551;-66
2022/08/17 00:03:14;;;;;;;5.30;4.97;;;26.00;65.20;;;;;;5036144;28;43442;-66
2022/08/17 00:05:51;;;;;;;5.50;5.13;;;26.00;65.10;;;;;;5040337;28;43504;-66
2022/08/17 00:08:44;;;;;;;5.45;5.05;;;26.00;65.20;;;;;;5033172;28;43792;-66
2022/08/17 00:11:16;;;;;;;4.82;4.53;;;26.00;65.10;;;;;;5038973;28;43526;-66
2022/08/17 00:13:47;;;;;;;4.80;4.50;;;26.00;65.20;;;;;;5042343;28;43493;-66
2022/08/17 00:16:21;;;;;;;4.88;4.57;;;26.00;65.20;;;;;;5031995;28;43483;-66
2022/08/17 00:19:12;;;;;;;5.10;4.80;;;26.00;65.10;;;;;;5040038;28;43870;-66
2022/08/17 00:21:43;;;;;;;5.20;4.80;;;26.00;65.10;;;;;;5033171;28;43422;-66
2022/08/17 00:24:31;;;;;;;5.00;4.70;;;25.90;65.10;;;;;;5040324;28;43412;-66
2022/08/17 00:26:58;;;;;;;5.50;5.10;;;25.90;65.10;;;;;;5039397;28;43477;-66
2022/08/17 00:29:26;;;;;;;4.88;4.57;;;26.00;65.20;;;;;;5046669;28;44225;-66
2022/08/17 00:31:54;;;;;;;5.57;5.18;;;26.00;65.20;;;;;;5039675;28;43696;-66
2022/08/17 00:34:21;;;;;;;5.20;4.88;;;25.90;65.10;;;;;;5041593;28;43462;-66
2022/08/17 00:36:48;;;;;;;5.53;5.10;;;25.90;65.30;;;;;;5028844;28;44024;-66
2022/08/17 00:39:16;;;;;;;5.05;4.65;;;25.90;65.10;;;;;;5029049;28;44982;-66
2022/08/17 00:41:43;;;;;;;4.90;4.53;;;25.90;65.10;;;;;;5039009;28;43810;-66
2022/08/17 00:44:11;;;;;;;4.88;4.57;;;25.90;65.20;;;;;;5042134;28;43410;-66
2022/08/17 00:46:41;;;;;;;5.10;4.78;;;25.90;65.10;;;;;;5028887;28;43542;-66
2022/08/17 00:49:11;;;;;;;5.27;4.87;;;25.90;65.10;;;;;;5033116;28;45088;-65
2022/08/17 00:51:44;;;;;;;4.80;4.50;;;25.90;65.20;;;;;;5041209;28;43799;-66
2022/08/17 00:54:22;;;;;;;5.47;5.07;;;25.90;65.20;;;;;;5030000;28;43435;-66
2022/08/17 00:56:55;;;;;;;5.53;5.13;;;25.90;65.20;;;;;;5029699;28;43542;-66
2022/08/17 00:59:29;;;;;;;5.35;4.95;;;25.90;65.20;;;;;;5037985;28;44056;-66
2022/08/17 01:01:58;;;;;;;4.85;4.55;;;25.90;65.20;;;;;;5041816;28;43475;-66
2022/08/17 01:04:28;;;;;;;5.35;4.95;;;25.90;65.20;;;;;;5029173;28;43482;-66
2022/08/17 01:06:57;;;;;;;5.20;4.90;;;25.90;65.20;;;;;;5029756;28;43480;-66
2022/08/17 01:09:24;;;;;;;5.60;5.20;;;25.90;65.20;;;;;;5041058;28;44968;-66
2022/08/17 01:11:52;;;;;;;4.57;4.28;;;25.90;65.20;;;;;;5039709;28;43578;-66
2022/08/17 01:14:24;;;;;;;4.90;4.60;;;25.90;65.20;;;;;;5038331;28;43466;-66
2022/08/17 01:16:54;;;;;;;5.40;5.10;;;25.90;65.20;;;;;;5028756;28;43528;-66
2022/08/17 01:19:41;;;;;;;5.40;5.00;;;25.90;65.20;;;;;;5037552;28;45020;-66
2022/08/17 01:22:13;;;;;;;5.35;4.95;;;25.80;65.10;;;;;;5052916;28;43464;-66
2022/08/17 01:24:44;;;;;;;5.28;4.88;;;25.80;65.10;;;;;;5026693;28;43386;-66
2022/08/17 01:27:15;;;;;;;5.07;4.78;;;25.80;65.20;;;;;;5031467;28;43450;-66
2022/08/17 01:29:48;;;;;;;5.07;4.68;;;25.80;65.20;;;;;;5038096;28;45108;-66
2022/08/17 01:32:17;;;;;;;4.82;4.43;;;25.80;65.20;;;;;;5028072;28;43921;-66
2022/08/17 01:34:46;;;;;;;4.90;4.60;;;25.80;65.20;;;;;;5028260;28;43356;-66
2022/08/17 01:37:18;;;;;;;5.20;4.88;;;25.80;65.20;;;;;;5037432;28;43490;-66
2022/08/17 01:39:56;;;;;;;4.82;4.53;;;25.80;65.20;;;;;;5037503;28;44040;-66
2022/08/17 01:42:23;;;;;;;5.18;4.78;;;25.80;65.20;;;;;;5031420;28;44040;-66
2022/08/17 01:44:55;;;;;;;5.07;4.75;;;25.80;65.20;;;;;;5035009;28;43431;-66
2022/08/17 01:47:23;;;;;;;5.20;4.80;;;25.80;65.20;;;;;;5037088;28;43531;-66
2022/08/17 01:49:51;;;;;;;5.10;4.70;;;25.70;65.10;;;;;;5048860;28;44122;-66
2022/08/17 01:52:20;;;;;;;5.63;5.15;;;25.70;65.10;;;;;;5041480;28;43930;-66
2022/08/17 01:54:49;;;;;;;5.28;4.88;;;25.70;65.10;;;;;;5037136;28;43494;-66
2022/08/17 01:57:16;;;;;;;5.00;4.70;;;25.70;65.10;;;;;;5039481;28;43609;-66
2022/08/17 01:59:44;;;;;;;5.15;4.82;;;25.70;65.10;;;;;;5025715;28;44023;-65
2022/08/17 02:02:14;;;;;;;5.28;4.88;;;25.70;65.10;;;;;;5030699;28;43562;-66
2022/08/17 02:04:58;;;;;;;4.80;4.50;;;25.70;65.10;;;;;;5037167;28;43531;-66
2022/08/17 02:07:25;;;;;;;4.53;4.22;;;25.70;65.20;;;;;;5038183;28;43533;-66
2022/08/17 02:09:53;;;;;;;4.82;4.53;;;25.70;65.10;;;;;;5025923;28;43893;-66
2022/08/17 02:12:21;;;;;;;4.93;4.63;;;25.70;65.20;;;;;;5037302;28;43963;-66
2022/08/17 02:15:11;;;;;;;4.95;4.65;;;25.70;65.10;;;;;;5039370;28;43459;-65
2022/08/17 02:17:39;;;;;;;4.53;4.22;;;25.70;65.10;;;;;;5029565;28;43472;-66
2022/08/17 02:20:09;;;;;;;4.88;4.57;;;25.70;65.20;;;;;;5037509;28;44076;-66
2022/08/17 02:22:39;;;;;;;4.53;4.20;;;25.60;65.10;;;;;;5040457;28;43458;-66
2022/08/17 02:25:08;;;;;;;4.82;4.53;;;25.60;65.10;;;;;;5039880;28;43368;-66
2022/08/17 02:27:37;;;;;;;5.20;4.80;;;25.60;65.10;;;;;;5028770;28;43504;-66
2022/08/17 02:30:09;;;;;;;4.53;4.22;;;25.60;65.70;;;;;;5035873;28;44024;-65
2022/08/17 02:32:57;;;;;;;4.95;4.63;;;25.60;65.10;;;;;;5040128;28;45918;-66
2022/08/17 02:35:30;;;;;;;4.60;4.30;;;25.60;65.10;;;;;;5037737;28;43452;-65
2022/08/17 02:37:57;;;;;;;4.50;4.20;;;25.60;65.10;;;;;;5031007;28;43450;-65
2022/08/17 02:40:25;;;;;;;4.22;3.92;;;25.60;65.10;;;;;;5038506;28;43815;-66
2022/08/17 02:43:04;;;;;;;4.30;4.00;;;25.60;65.10;;;;;;5042403;28;43901;-66
2022/08/17 02:45:31;;;;;;;3.92;3.72;;;25.60;65.10;;;;;;5035180;28;43411;-66
2022/08/17 02:47:58;;;;;;;4.22;4.03;;;25.60;65.10;;;;;;5036681;28;43451;-66
2022/08/17 02:50:26;;;;;;;4.43;4.13;;;25.60;65.10;;;;;;5043610;28;44054;-66
2022/08/17 02:52:54;;;;;;;4.40;4.10;;;25.60;65.10;;;;;;5038576;28;43439;-66
2022/08/17 02:55:35;;;;;;;4.40;4.10;;;25.60;65.10;;;;;;5028515;28;43449;-65
2022/08/17 02:58:03;;;;;;;4.43;4.13;;;25.60;65.10;;;;;;5037767;28;43419;-65
2022/08/17 03:00:34;;;;;;;4.18;3.88;;;25.50;65.10;;;;;;5041313;28;43812;-65
2022/08/17 03:03:04;;;;;;;4.07;3.78;;;25.60;65.10;;;;;;5037237;28;43895;-66
2022/08/17 03:05:35;;;;;;;3.58;3.33;;;25.60;65.10;;;;;;5032182;28;43431;-65
2022/08/17 03:08:03;;;;;;;;;;;25.50;65.10;;;;;;5039144;28;43535;-66
2022/08/17 03:10:31;;;;;;;3.88;3.67;;;25.50;65.10;;;;;;5041759;28;44043;-66
2022/08/17 03:12:59;;;;;;;3.72;3.53;;;25.50;65.20;;;;;;5042826;28;45069;-66
2022/08/17 03:15:30;;;;;;;3.70;3.50;;;25.50;65.10;;;;;;5044273;28;43534;-66
2022/08/17 03:17:58;;;;;;;;;;;25.50;65.10;;;;;;5039376;28;43529;-66
2022/08/17 03:20:27;;;;;;;3.95;3.75;;;25.50;65.10;;;;;;5037563;28;44707;-66
2022/08/17 03:22:56;;;;;;;3.55;3.35;;;25.50;65.20;;;;;;5028195;28;43708;-66
2022/08/17 03:25:36;;;;;;;3.60;3.40;;;25.50;65.20;;;;;;5038497;28;43419;-66
2022/08/17 03:28:05;;;;;;;3.28;3.08;;;25.50;65.10;;;;;;5041514;28;43914;-66
2022/08/17 03:30:34;;;;;;;3.50;3.30;;;25.40;65.00;;;;;;5035210;28;43812;-65
2022/08/17 03:33:04;;;;;;;3.25;3.05;;;25.50;65.10;;;;;;5032658;28;43991;-65
2022/08/17 03:35:35;;;;;;;3.40;3.20;;;25.40;65.10;;;;;;5037633;28;43460;-66
2022/08/17 03:38:03;;;;;;;3.35;3.15;;;25.40;65.10;;;;;;5041394;28;43705;-66
2022/08/17 03:40:32;;;;;;;3.63;3.42;;;25.40;65.10;;;;;;5035406;28;44945;-66
2022/08/17 03:43:21;;;;;;;3.53;3.33;;;25.40;65.10;;;;;;5039096;28;43934;-66
2022/08/17 03:57:11;;;;;;;3.30;3.10;;;25.40;65.20;;;;;;5042313;28;43435;-66
2022/08/17 03:59:39;;;;;;;3.33;3.13;;;25.40;65.10;;;;;;5027270;28;43566;-66
2022/08/17 04:02:14;;;;;;;3.47;3.28;;;25.40;65.20;;;;;;5051811;28;44398;-66
2022/08/17 04:04:42;;;;;;;3.08;2.88;;;25.40;65.20;;;;;;5045797;28;43893;-66
2022/08/17 04:07:09;;;;;;;3.05;2.92;;;25.40;65.20;;;;;;5039806;28;43441;-66
2022/08/17 04:09:37;;;;;;;2.88;2.67;;;25.40;65.20;;;;;;5027338;28;43538;-66
2022/08/17 04:12:05;;;;;;;3.40;3.20;;;25.30;65.10;;;;;;5051850;28;44962;-66
2022/08/17 04:14:36;;;;;;;3.30;3.10;;;25.40;65.20;;;;;;5042180;28;44114;-65
2022/08/17 04:17:25;;;;;;;3.00;2.80;;;25.30;65.10;;;;;;5038827;28;43465;-66
2022/08/17 04:19:54;;;;;;;3.15;2.95;;;25.30;65.10;;;;;;5029764;28;43387;-66
2022/08/17 04:22:23;;;;;;;2.88;2.78;;;25.30;65.10;;;;;;5038231;28;43803;-66
2022/08/17 04:25:14;;;;;;;3.28;3.08;;;25.30;65.10;;;;;;5038314;28;43518;-66
2022/08/17 04:27:42;;;;;;;2.85;2.75;;;25.30;65.10;;;;;;5032928;28;43454;-66
2022/08/17 04:30:10;;;;;;;2.70;2.60;;;25.30;65.20;;;;;;5035472;28;43486;-66
2022/08/17 04:32:55;;;;;;;2.90;2.70;;;25.30;65.20;;;;;;5040241;28;44680;-66
2022/08/17 04:35:46;;;;;;;3.15;2.95;;;25.30;65.10;;;;;;5024463;28;43416;-66
2022/08/17 04:38:17;;;;;;;2.83;2.72;;;25.30;65.80;;;;;;5031198;28;43488;-66
2022/08/17 04:43:32;;;;;;;2.83;2.72;;;25.20;65.10;;;;;;5031823;28;43761;-66
2022/08/17 04:46:03;;;;;;;2.95;2.85;;;25.20;65.10;;;;;;5031339;28;43411;-66
2022/08/17 04:48:33;;;;;;;;;;;25.20;65.10;;;;;;5034856;28;43451;-66
2022/08/17 04:51:07;;;;;;;2.50;2.40;;;25.20;65.10;;;;;;5036807;28;43400;-66
2022/08/17 04:53:35;;;;;;;2.80;2.70;;;25.20;65.10;;;;;;5031909;28;44151;-66
2022/08/17 04:56:03;;;;;;;2.88;2.67;;;25.20;65.20;;;;;;5040446;28;43503;-66
2022/08/17 04:58:31;;;;;;;3.00;2.80;;;25.20;65.10;;;;;;5032174;28;43478;-66
2022/08/17 05:00:59;;;;;;;2.45;2.35;;;25.20;65.10;;;;;;5040156;28;43554;-66
2022/08/17 05:03:27;;;;;;;2.70;2.60;;;25.20;65.10;;;;;;5031335;28;44959;-66
2022/08/17 05:05:55;;;;;;;2.53;2.42;;;25.20;65.00;;;;;;5033051;28;44364;-66
2022/08/17 05:08:23;;;;;;;2.53;2.42;;;25.10;65.00;;;;;;5038998;28;43458;-66
2022/08/17 05:10:50;;;;;;;2.50;2.40;;;25.20;65.10;;;;;;5042115;28;43473;-66
2022/08/17 05:13:24;;;;;;;2.50;2.40;;;25.10;65.00;;;;;;5039452;28;44228;-66
2022/08/17 05:15:55;;;;;;;2.55;2.45;;;25.20;65.10;;;;;;5033304;28;43714;-66
2022/08/17 05:18:23;;;;;;;2.58;2.47;;;25.10;65.10;;;;;;5035047;28;43491;-66
2022/08/17 05:20:52;;;;;;;2.40;2.30;;;25.10;65.10;;;;;;5032456;28;43596;-66
2022/08/17 05:23:22;;;;;;;2.13;2.03;;;25.10;65.10;;;;;;5037398;28;44995;-66
2022/08/17 05:25:56;;;;;;;2.30;2.20;;;25.10;65.00;;;;;;5033239;28;43981;-66
2022/08/17 05:28:26;;;;;;;2.30;2.20;;;25.10;65.00;;;;;;5038801;28;43453;-66
2022/08/17 05:31:00;;;;;;;2.38;2.28;;;25.10;65.00;;;;;;5031801;28;43641;-66
2022/08/17 05:33:33;;;;;;;2.35;2.25;;;25.10;65.00;;;;;;5029636;28;43974;-66
2022/08/17 05:36:06;;;;;;;2.30;2.20;;;25.10;65.10;;;;;;5037534;28;43430;-67
2022/08/17 05:38:34;;;;;;;2.50;2.40;;;25.10;65.10;;;;;;5030966;28;43443;-67
2022/08/17 05:41:05;;;;;;;2.60;2.50;;;25.10;65.10;;;;;;5029063;28;43594;-67
2022/08/17 05:43:35;;;;;;;;;;;25.10;65.10;;;;;;5031675;28;44999;-67
2022/08/17 05:46:05;;;;;;;2.28;2.17;;;25.10;65.20;;;;;;5038499;28;43513;-67
2022/08/17 05:48:37;;;;;;;2.28;2.17;;;25.10;65.30;;;;;;5040842;28;43455;-67
2022/08/17 05:51:50;;;;;;;2.30;2.20;;;25.10;65.30;;;;;;5041374;28;44076;-67
2022/08/17 05:54:34;;;;;;;2.35;2.25;;;25.10;65.20;;;;;;5033324;28;44967;-67
2022/08/17 05:57:36;;;;;;;2.53;2.42;;;25.00;65.20;;;;;;5040507;28;43462;-67
2022/08/17 06:00:41;;;;;;;2.30;2.20;;;25.10;65.20;;;;;;5029640;28;43436;-67
2022/08/17 06:03:16;;;;;;;2.42;2.33;;;25.00;65.20;;;;;;5040439;28;43466;-67
2022/08/17 06:06:22;;;;;;;2.50;2.40;;;25.00;65.20;;;;;;5038536;28;43967;-67
2022/08/17 06:09:23;;;;;;;2.80;2.60;;;25.00;65.20;;;;;;5029430;28;43518;-67
2022/08/17 06:12:16;;;;;;;2.42;2.33;;;25.00;65.20;;;;;;5034123;28;43487;-67
2022/08/17 06:15:18;;;;;;;2.53;2.42;;;25.00;65.20;;;;;;5036629;28;43547;-67
2022/08/17 06:17:45;;;;;;;2.92;2.72;;;25.00;65.20;;;;;;5023593;28;43972;-67
2022/08/17 06:20:14;;;;;;;2.65;2.45;;;25.00;65.30;;;;;;5030682;28;43487;-67
2022/08/17 06:22:53;;;;;;;2.63;2.42;;;25.00;65.20;;;;;;5036136;28;43497;-67
2022/08/17 06:25:39;;;;;;;2.80;2.60;;;25.00;65.20;;;;;;5035756;28;43566;-67
2022/08/17 06:28:13;;;;;;;2.60;2.50;;;25.00;65.20;;;;;;5036084;28;43831;-67
2022/08/17 06:30:56;;;;;;;2.90;2.70;;;25.00;65.30;;;;;;5032771;28;43482;-66
2022/08/17 06:33:34;;;;;;;2.58;2.38;;;25.00;65.30;;;;;;5040169;28;43372;-67
2022/08/17 06:36:34;;;;;;;2.63;2.50;;;25.00;65.30;;;;;;5030141;28;43397;-67
2022/08/17 06:39:26;;;;;;;2.63;2.53;;;25.00;65.30;;;;;;5029046;28;44716;-65
2022/08/17 06:42:08;;;;;;;2.80;2.70;;;25.00;65.30;;;;;;5033795;28;44314;-67
2022/08/17 06:45:05;;;;;;;2.70;2.60;;;25.00;65.30;;;;;;5036086;28;43439;-66
2022/08/17 06:47:41;;;;;;;2.78;2.67;;;25.00;65.30;;;;;;5029214;28;43475;-67
2022/08/17 06:50:17;;;;;;;3.03;2.83;;;25.00;65.40;;;;;;5036174;28;43989;-67
2022/08/17 06:53:11;;;;;;;2.92;2.72;;;25.00;65.40;;;;;;5035171;28;43534;-68
2022/08/17 06:55:48;;;;;;;2.75;2.65;;;25.00;65.50;;;;;;5005206;28;43555;-67
2022/08/17 06:58:21;;;;;;;2.92;2.72;;;25.00;65.40;;;;;;5038610;28;43507;-66
2022/08/17 07:00:50;;;;;;;3.20;3.00;;;25.00;65.40;;;;;;5037081;28;45001;-67
2022/08/17 07:03:31;;;;;;;3.00;2.80;;;25.00;65.40;;;;;;5030179;28;43735;-67
2022/08/17 07:06:05;;;;;;;2.80;2.70;;;25.00;65.50;;;;;;5040255;28;43504;-68
2022/08/17 07:08:36;;;;;;;3.20;2.90;;;25.00;65.50;;;;;;5051181;28;43503;-67
2022/08/17 07:11:15;;;;;;;3.38;3.17;;;25.00;65.50;;;;;;5043532;28;44014;-67
2022/08/17 07:14:13;;;;;;;3.40;3.20;;;25.00;65.50;;;;;;5042124;28;43515;-66
2022/08/17 07:16:49;;;;;;;3.10;2.90;;;25.00;65.50;;;;;;5033506;28;43416;-67
2022/08/17 07:19:24;;;;;;;3.10;2.90;;;24.90;65.50;;;;;;5040606;28;43512;-67
2022/08/17 07:22:09;;;;;;;3.20;3.00;;;25.00;65.60;;;;;;5029740;28;43900;-67
2022/08/17 07:24:42;;;;;;;3.60;3.38;;;24.90;65.50;;;;;;5035552;28;44290;-67
2022/08/17 07:27:11;;;;;;;2.90;2.80;;;24.90;65.50;;;;;;5039153;28;43455;-67
2022/08/17 07:30:15;;;;;;;3.53;3.20;;;25.00;65.50;;;;;;5041410;28;43537;-67
2022/08/17 07:32:56;;;;;;;3.40;3.20;;;24.90;65.40;;;;;;5032065;28;45024;-67
2022/08/17 07:35:35;;;;;;;3.38;3.17;;;25.00;65.50;;;;;;5039584;28;43543;-67
2022/08/17 07:38:13;;;;;;;3.45;3.25;;;25.00;65.40;;;;;;5042738;28;43479;-67
2022/08/17 07:41:02;;;;;;;3.42;3.22;;;24.90;65.50;;;;;;5040782;28;43536;-66
2022/08/17 07:43:38;;;;;;;3.08;2.88;;;24.90;65.50;;;;;;5049282;28;44057;-66
2022/08/17 07:49:06;;;;;;;3.42;3.22;;;25.00;65.40;;;;;;5042201;28;43469;-65
2022/08/17 07:51:56;;;;;;;3.20;2.95;;;25.00;65.40;;;;;;5042780;28;43459;-66
2022/08/17 07:54:44;;;;;;;3.10;2.90;;;25.00;65.40;;;;;;5036412;28;45044;-66
2022/08/17 07:57:11;;;;;;;3.55;3.35;;;25.00;65.40;;;;;;5040789;28;43740;-67
2022/08/17 07:59:42;;;;;;;3.30;3.10;;;25.00;65.40;;;;;;5041070;28;43479;-66
2022/08/17 08:02:27;;;;;;;3.22;3.03;;;25.00;65.30;;;;;;5035517;28;43511;-66
2022/08/17 08:05:22;;;;;;;3.35;3.15;;;25.00;65.30;;;;;;5039216;28;43904;-66
2022/08/17 08:08:41;;;;;;;3.22;3.03;;;25.00;65.30;;;;;;5024172;28;43479;-66
2022/08/17 08:11:14;;;;;;;3.30;3.10;;;25.00;65.30;;;;;;5039482;28;43814;-66
2022/08/17 08:13:44;;;;;;;3.40;3.20;;;25.00;65.30;;;;;;5041541;28;43509;-66
2022/08/17 08:16:18;;;;;;;3.38;3.17;;;25.00;65.30;;;;;;5040853;28;44313;-66
2022/08/17 08:18:52;;;;;;;3.47;3.28;;;25.00;65.20;;;;;;5031599;28;43443;-66
2022/08/17 08:21:35;;;;;;;3.38;3.17;;;25.00;65.20;;;;;;5031147;28;43454;-66
2022/08/17 08:24:23;;;;;;;3.25;3.05;;;25.00;65.20;;;;;;5033794;28;43454;-66
2022/08/17 08:27:07;;;;;;;3.25;3.05;;;25.00;65.20;;;;;;5029391;28;43979;-66
2022/08/17 08:29:55;;;;;;;3.38;3.17;;;25.00;65.30;;;;;;5035174;28;43987;-66
2022/08/17 08:32:38;;;;;;;3.92;3.65;;;25.10;65.30;;;;;;5040058;28;43478;-68
2022/08/17 08:35:25;;;;;;;3.47;3.28;;;25.00;65.20;;;;;;5038177;28;43551;-67
2022/08/17 08:38:04;;;;;;;3.58;3.38;;;25.00;65.20;;;;;;5029446;28;44033;-67
2022/08/17 08:40:50;;;;;;;3.53;3.33;;;25.00;65.30;;;;;;5035364;28;43677;-67
2022/08/17 08:43:45;;;;;;;3.90;3.60;;;25.10;65.40;;;;;;5030274;28;43508;-66
2022/08/17 08:46:26;;;;;;;;;;;25.00;65.40;;;;;;5032203;28;43847;-66
2022/08/17 08:49:17;;;;;;;4.60;4.28;;;25.00;65.50;;;;;;5035964;28;45276;-62
2022/08/17 08:51:54;;;;;;;4.10;3.80;;;25.00;65.60;;;;;;5031053;28;43652;-66
2022/08/17 08:54:47;;;;;;;3.58;3.33;;;25.00;65.50;;;;;;5041219;28;43438;-66
2022/08/17 08:57:26;;;;;;;3.80;3.60;;;25.00;65.40;;;;;;5029193;28;43571;-66
2022/08/17 09:00:11;;;;;;;3.78;3.50;;;25.00;65.50;;;;;;5037303;28;45502;-67
2022/08/17 09:03:06;;;;;;;3.45;3.25;;;25.00;65.50;;;;;;5036378;28;43517;-66
2022/08/17 09:05:57;;;;;;;4.20;3.80;;;25.00;65.40;;;;;;5001831;28;43476;-66
2022/08/17 09:08:24;;;;;;;4.20;3.70;;;25.10;65.70;;;;;;5025933;28;43995;-64
2022/08/17 09:11:04;;;;;;;3.97;3.67;;;25.00;65.70;;;;;;5041209;28;44214;-62
2022/08/17 09:13:49;;;;;;;3.92;3.63;;;25.10;65.70;;;;;;5041529;28;43514;-68
2022/08/17 09:16:29;;;;;;;3.83;3.60;;;25.10;65.70;;;;;;5029600;28;43518;-67
2022/08/17 09:19:03;;;;;;;4.20;3.90;;;25.10;66.10;;;;;;5036042;28;43614;-68
2022/08/17 09:21:38;;;;;;;3.70;3.50;;;25.10;66.10;;;;;;5035625;28;44060;-68
2022/08/17 09:24:48;;;;;;;4.10;3.80;;;25.10;65.90;;;;;;5037453;28;43973;-67
2022/08/17 09:27:22;;;;;;;4.25;3.85;;;25.10;65.90;;;;;;5036452;28;43499;-68
2022/08/17 09:30:06;;;;;;;3.80;3.60;;;25.10;65.90;;;;;;5036363;28;43551;-67
2022/08/17 09:32:40;;;;;;;3.97;3.67;;;25.10;65.80;;;;;;5036764;28;43894;-68
2022/08/17 09:35:22;;;;;;;4.00;3.63;;;25.10;65.80;;;;;;5037605;28;43504;-67
2022/08/17 09:38:12;;;;;;;4.03;3.72;;;25.10;65.80;;;;;;5036392;28;43479;-66
2022/08/17 09:40:47;;;;;;;3.83;3.45;;;25.20;65.80;;;;;;5036037;28;43527;-67
2022/08/17 09:43:31;;;;;;;4.20;3.90;;;25.20;65.90;;;;;;5037127;28;44002;-67
2022/08/17 09:46:24;;;;;;;4.50;4.10;;;25.10;65.70;;;;;;5036718;28;43459;-67
2022/08/17 09:49:08;;;;;;;3.90;3.60;;;25.20;65.80;;;;;;5032186;28;43630;-67
2022/08/17 09:52:01;;;;;;;4.25;3.85;;;25.20;65.80;;;;;;5033438;28;43582;-66
2022/08/17 09:54:34;;;;;;;4.18;3.88;;;25.20;66.00;;;;;;5035776;28;44021;-67
2022/08/17 09:57:23;;;;;;;4.10;3.78;;;25.20;65.90;;;;;;5036564;28;43953;-67
2022/08/17 10:00:14;;;;;;;3.85;3.55;;;25.20;65.90;;;;;;5037310;28;43485;-67
2022/08/17 10:03:10;;;;;;;3.88;3.58;;;25.20;65.70;;;;;;5037177;28;43634;-67
2022/08/17 10:05:45;;;;;;;4.00;3.63;;;25.20;65.80;;;;;;5039550;28;43775;-66
2022/08/17 10:08:26;;;;;;;3.75;3.55;;;25.20;66.10;;;;;;5038623;28;43494;-65
2022/08/17 10:11:14;;;;;;;5.20;3.85;;;25.20;65.90;;;;;;5036284;28;43499;-66
2022/08/17 10:13:49;;;;;;;3.88;3.50;;;25.20;66.10;;;;;;5037091;28;43558;-66
2022/08/17 10:16:26;;;;;;;3.83;3.55;;;25.20;66.30;;;;;;5036732;28;44103;-67
2022/08/17 10:19:04;;;;;;;4.03;3.70;;;25.20;66.10;;;;;;5035586;28;43467;-68
2022/08/17 10:27:56;;;;;;;3.97;3.70;;;25.30;66.30;;;;;;5035811;28;43851;-67
2022/08/17 10:30:27;;;;;;;4.90;4.50;;;25.30;66.30;;;;;;5032245;28;43498;-67
2022/08/17 10:33:03;;;;;;;4.85;4.18;;;25.30;66.50;;;;;;5027632;28;43567;-67
2022/08/17 10:35:36;;;;;;;3.85;3.55;;;25.30;66.50;;;;;;5035718;28;43636;-68
2022/08/17 10:38:28;;;;;;;4.10;3.80;;;25.30;66.40;;;;;;5036241;28;44043;-67
2022/08/17 10:41:18;;;;;;;4.20;3.80;;;25.40;66.30;;;;;;5038474;28;43530;-65
2022/08/17 10:44:09;;;;;;;3.90;3.60;;;25.40;66.20;;;;;;5039407;28;43947;-65
2022/08/17 10:47:11;;;;;;;4.82;4.38;;;25.40;66.20;;;;;;5040268;28;43589;-65
2022/08/17 10:49:54;;;;;;;4.40;4.00;;;25.40;66.40;;;;;;5038862;28;44028;-65
2022/08/17 10:52:22;;;;;;;4.20;3.80;;;25.40;66.40;;;;;;5039040;28;43537;-66
2022/08/17 10:54:51;;;;;;;4.90;4.40;;;25.40;66.20;;;;;;5040653;28;43511;-67
2022/08/17 10:57:35;;;;;;;4.75;3.90;;;25.40;66.40;;;;;;5039565;28;43533;-66
2022/08/17 11:00:14;;;;;;;4.50;4.10;;;25.40;66.30;;;;;;5037593;28;43971;-67
2022/08/17 11:02:53;;;;;;;4.43;4.13;;;25.40;66.40;;;;;;5039510;28;43465;-66
2022/08/17 11:05:39;;;;;;;4.03;3.67;;;25.40;66.10;;;;;;5039555;28;43446;-67
2022/08/17 11:08:35;;;;;;;4.65;4.25;;;25.40;66.00;;;;;;5038934;28;43633;-66
2022/08/17 11:11:34;;;;;;;4.85;4.45;;;25.40;66.00;;;;;;5038577;28;44057;-66
2022/08/17 11:14:25;;;;;;;4.25;3.95;;;25.40;66.10;;;;;;5035660;28;43491;-66
2022/08/17 11:17:06;;;;;;;4.70;4.30;;;25.40;66.20;;;;;;5039184;28;43557;-67
2022/08/17 11:19:45;;;;;;;4.40;4.10;;;25.40;66.20;;;;;;5038294;28;43645;-66
2022/08/17 11:22:28;;;;;;;4.30;4.00;;;25.40;66.20;;;;;;5039434;28;43923;-66
2022/08/17 11:25:30;;;;;;;4.93;4.53;;;25.40;66.20;;;;;;5038984;28;43932;-66
2022/08/17 11:28:14;;;;;;;4.43;4.03;;;25.40;66.30;;;;;;5039212;28;43610;-66
2022/08/17 11:31:00;;;;;;;4.90;4.43;;;25.40;66.30;;;;;;5039397;28;43539;-66
2022/08/17 11:33:28;;;;;;;4.88;4.38;;;25.40;66.30;;;;;;5038236;28;44978;-66
2022/08/17 11:36:21;;;;;;;4.72;4.30;;;25.40;66.20;;;;;;5039548;28;44427;-66
2022/08/17 11:39:21;;;;;;;4.68;4.38;;;25.40;66.20;;;;;;5023017;28;43587;-66
2022/08/17 11:42:15;;;;;;;5.18;4.75;;;25.40;66.20;;;;;;5039294;28;43566;-66
2022/08/17 11:44:57;;;;;;;4.60;4.28;;;25.40;66.20;;;;;;5039544;28;44978;-66
2022/08/17 11:51:32;;;;;;;4.82;4.43;;;25.40;66.20;;;;;;5036876;28;43604;-66
2022/08/17 11:54:08;;;;;;;4.63;4.32;;;25.40;66.10;;;;;;5037539;28;43667;-67
2022/08/17 11:56:58;;;;;;;4.90;4.60;;;25.40;66.10;;;;;;5041601;28;43983;-67
2022/08/17 11:59:32;;;;;;;4.32;3.92;;;25.40;66.10;;;;;;5039412;28;43430;-66
2022/08/17 12:02:30;;;;;;;5.20;4.20;;;25.40;66.10;;;;;;5044765;28;43395;-66
2022/08/17 12:05:11;;;;;;;4.78;4.38;;;25.40;66.10;;;;;;5038543;28;43525;-66
2022/08/17 12:08:04;;;;;;;4.50;4.10;;;25.40;66.10;;;;;;5024185;28;43791;-66
2022/08/17 12:10:38;;;;;;;4.75;4.35;;;25.40;66.10;;;;;;5040050;28;43399;-66
2022/08/17 12:13:14;;;;;;;4.97;4.57;;;25.40;66.10;;;;;;5038207;28;43406;-66
2022/08/17 12:15:48;;;;;;;4.20;3.90;;;25.40;66.10;;;;;;5042031;28;43937;-66
2022/08/17 12:18:26;;;;;;;4.47;4.18;;;25.40;66.10;;;;;;5030157;28;44026;-66
2022/08/17 12:21:25;;;;;;;4.55;4.15;;;25.40;66.10;;;;;;5030399;28;44712;-66
2022/08/17 12:23:59;;;;;;;4.88;4.57;;;25.40;66.00;;;;;;5032281;28;43497;-66
2022/08/17 12:26:33;;;;;;;4.97;4.47;;;25.40;66.00;;;;;;5041547;28;43510;-66
2022/08/17 12:29:10;;;;;;;5.00;4.65;;;25.40;65.90;;;;;;5027910;28;43967;-67
2022/08/17 12:32:00;;;;;;;4.70;4.40;;;25.50;66.00;;;;;;5040212;28;43523;-67
2022/08/17 12:34:41;;;;;;;4.47;4.18;;;25.50;66.10;;;;;;5040098;28;43450;-66
2022/08/17 12:37:26;;;;;;;4.80;4.40;;;25.50;65.90;;;;;;5031012;28;43525;-66
2022/08/17 12:40:01;;;;;;;4.78;4.38;;;25.50;65.90;;;;;;5034997;28;44060;-66
2022/08/17 12:42:36;;;;;;;4.38;4.07;;;25.50;65.90;;;;;;5036470;28;43516;-66
2022/08/17 12:45:06;;;;;;;4.60;4.28;;;25.50;65.90;;;;;;5024106;28;43508;-66
2022/08/17 12:47:37;;;;;;;4.73;4.40;;;25.50;65.90;;;;;;5030321;28;43593;-66
2022/08/17 12:50:13;;;;;;;4.40;4.10;;;25.50;66.60;;;;;;5041835;28;43998;-66
2022/08/17 12:52:56;;;;;;;4.38;4.03;;;25.50;66.00;;;;;;5042957;28;43381;-66
2022/08/17 12:55:35;;;;;;;4.50;4.20;;;25.50;66.10;;;;;;5031807;28;43425;-66
2022/08/17 12:58:05;;;;;;;4.53;4.13;;;25.50;66.00;;;;;;5032824;28;43530;-67
2022/08/17 13:00:47;;;;;;;5.18;4.50;;;25.50;66.00;;;;;;5039479;28;43946;-67
2022/08/17 13:03:18;;;;;;;5.20;4.80;;;25.50;66.00;;;;;;5031936;28;43924;-66
2022/08/17 13:05:51;;;;;;;4.80;4.50;;;25.50;66.00;;;;;;5040392;28;44035;-66
2022/08/17 13:08:28;;;;;;;4.68;4.28;;;25.60;66.00;;;;;;5055599;28;43526;-67
2022/08/17 13:11:18;;;;;;;4.32;4.03;;;25.50;65.90;;;;;;5031064;28;44253;-66
2022/08/17 13:13:54;;;;;;;4.55;4.15;;;25.50;65.90;;;;;;5041899;28;43470;-66
2022/08/17 13:16:29;;;;;;;4.60;4.20;;;25.50;66.00;;;;;;5033460;28;43380;-66
2022/08/17 13:19:20;;;;;;;4.55;4.15;;;25.50;65.90;;;;;;5038419;28;43543;-66
2022/08/17 13:22:10;;;;;;;4.70;4.30;;;25.50;66.00;;;;;;5037411;28;44067;-66
2022/08/17 13:24:52;;;;;;;4.68;4.28;;;25.50;66.00;;;;;;5026318;28;43578;-66
2022/08/17 13:27:23;;;;;;;4.45;4.15;;;25.50;66.00;;;;;;5037413;28;43429;-66
2022/08/17 13:29:59;;;;;;;4.75;4.45;;;25.50;66.00;;;;;;5038367;28;43537;-66
2022/08/17 13:32:29;;;;;;;4.55;4.15;;;25.50;66.00;;;;;;5033715;28;44044;-66
2022/08/17 13:35:07;;;;;;;4.80;4.40;;;25.50;66.00;;;;;;5032594;28;43399;-63
2022/08/17 13:38:07;;;;;;;4.63;4.32;;;25.50;66.70;;;;;;5034417;28;43492;-67
2022/08/17 13:40:44;;;;;;;4.75;4.45;;;25.50;66.10;;;;;;5030982;28;43356;-67
2022/08/17 13:43:31;;;;;;;4.78;4.45;;;25.50;66.10;;;;;;5040223;28;44967;-66
2022/08/17 13:46:11;;;;;;;4.85;4.50;;;25.50;66.10;;;;;;5033387;28;43591;-66
2022/08/17 13:48:39;;;;;;;4.57;4.23;;;25.50;66.40;;;;;;5042112;28;43432;-67
2022/08/17 13:51:14;;;;;;;4.60;4.30;;;25.60;66.20;;;;;;5030079;28;43496;-68
2022/08/17 13:53:41;;;;;;;4.47;4.07;;;25.50;66.10;;;;;;5035925;28;43835;-67
2022/08/17 13:56:39;;;;;;;4.22;3.92;;;25.60;65.90;;;;;;5039928;28;43469;-68
2022/08/17 13:59:36;;;;;;;4.32;4.03;;;25.60;66.00;;;;;;5038380;28;43395;-68
2022/08/17 14:02:22;;;;;;;5.78;3.88;;;25.60;65.90;;;;;;5040750;28;43526;-67
2022/08/17 14:04:55;;;;;;;4.63;4.22;;;25.60;65.90;;;;;;5038709;28;44028;-67
2022/08/17 14:07:32;;;;;;;4.90;4.40;;;25.60;65.90;;;;;;5045076;28;43570;-67
2022/08/17 14:10:14;;;;;;;4.28;3.97;;;25.60;65.90;;;;;;5037975;28;43427;-67